sensor_id;sensor_type;location;lat;lon;timestamp;P1;durP1;ratioP1;P2;durP2;ratioP2
47289;SDS011;33197;52.524;13.444;2022-09-28T00:03:46;6.20;;;2.05;;
47289;SDS011;33197;52.524;13.444;2022-09-28T00:06:18;3.72;;;2.30;;
47289;SDS011;33197;52.524;13.444;2022-09-28T00:08:49;5.63;;;2.20;;
47289;SDS011;33197;52.524;13.444;2022-09-28T00:11:17;3.75;;;1.92;;
47289;SDS011;33197;52.524;13.444;2022-09-28T00:13:48;2.35;;;1.75;;
47289;SDS011;33197;52.524;13.444;2022-09-28T00:16:19;4.53;;;2.10;;
47289;SDS011;33197;52.524;13.444;2022-09-28T00:18:48;3.20;;;2.00;;
47289;SDS011;33197;52.524;13.444;2022-09-28T00:21:19;3.35;;;2.20;;
47289;SDS011;33197;52.524;13.444;2022-09-28T00:23:56;3.25;;;2.33;;
47289;SDS011;33197;52.524;13.444;2022-09-28T00:26:50;4.05;;;2.05;;
47289;SDS011;33197;52.524;13.444;2022-09-28T00:29:34;7.82;;;1.92;;
47289;SDS011;33197;52.524;13.444;2022-09-28T00:32:08;4.32;;;2.40;;
47289;SDS011;33197;52.524;13.444;2022-09-28T00:34:39;2.92;;;2.35;;
47289;SDS011;33197;52.524;13.444;2022-09-28T00:39:47;2.60;;;2.30;;
47289;SDS011;33197;52.524;13.444;2022-09-28T00:42:18;4.35;;;2.60;;
47289;SDS011;33197;52.524;13.444;2022-09-28T00:44:52;3.70;;;2.60;;
47289;SDS011;33197;52.524;13.444;2022-09-28T00:47:35;3.20;;;2.42;;
47289;SDS011;33197;52.524;13.444;2022-09-28T00:50:19;3.47;;;2.50;;
47289;SDS011;33197;52.524;13.444;2022-09-28T00:55:30;5.65;;;2.42;;
47289;SDS011;33197;52.524;13.444;2022-09-28T00:58:07;4.82;;;2.85;;
47289;SDS011;33197;52.524;13.444;2022-09-28T01:00:39;3.53;;;2.95;;
47289;SDS011;33197;52.524;13.444;2022-09-28T01:08:50;4.40;;;2.58;;
47289;SDS011;33197;52.524;13.444;2022-09-28T01:11:18;3.42;;;2.60;;
47289;SDS011;33197;52.524;13.444;2022-09-28T01:13:47;3.97;;;2.75;;
47289;SDS011;33197;52.524;13.444;2022-09-28T01:21:34;2.40;;;2.20;;
47289;SDS011;33197;52.524;13.444;2022-09-28T01:30:09;3.17;;;2.08;;
47289;SDS011;33197;52.524;13.444;2022-09-28T01:33:00;5.05;;;2.67;;
47289;SDS011;33197;52.524;13.444;2022-09-28T01:38:20;3.38;;;2.55;;
47289;SDS011;33197;52.524;13.444;2022-09-28T01:40:50;3.55;;;2.45;;
47289;SDS011;33197;52.524;13.444;2022-09-28T01:43:22;3.20;;;2.10;;
47289;SDS011;33197;52.524;13.444;2022-09-28T01:48:42;3.03;;;2.33;;
47289;SDS011;33197;52.524;13.444;2022-09-28T01:51:24;3.47;;;2.22;;
47289;SDS011;33197;52.524;13.444;2022-09-28T01:53:59;5.22;;;2.30;;
47289;SDS011;33197;52.524;13.444;2022-09-28T01:59:29;2.33;;;1.95;;
47289;SDS011;33197;52.524;13.444;2022-09-28T02:02:11;4.82;;;2.58;;
47289;SDS011;33197;52.524;13.444;2022-09-28T02:04:44;2.70;;;2.10;;
47289;SDS011;33197;52.524;13.444;2022-09-28T02:07:23;2.70;;;2.00;;
47289;SDS011;33197;52.524;13.444;2022-09-28T02:09:54;3.17;;;2.13;;
47289;SDS011;33197;52.524;13.444;2022-09-28T02:16:20;6.22;;;2.40;;
47289;SDS011;33197;52.524;13.444;2022-09-28T02:18:29;4.07;;;2.50;;
47289;SDS011;33197;52.524;13.444;2022-09-28T02:21:00;3.83;;;2.67;;
47289;SDS011;33197;52.524;13.444;2022-09-28T02:23:38;4.10;;;3.17;;
47289;SDS011;33197;52.524;13.444;2022-09-28T02:26:09;4.43;;;3.10;;
47289;SDS011;33197;52.524;13.444;2022-09-28T02:28:41;7.35;;;3.80;;
47289;SDS011;33197;52.524;13.444;2022-09-28T02:31:10;4.03;;;3.13;;
47289;SDS011;33197;52.524;13.444;2022-09-28T02:33:39;3.95;;;3.10;;
47289;SDS011;33197;52.524;13.444;2022-09-28T02:36:10;4.40;;;3.45;;
47289;SDS011;33197;52.524;13.444;2022-09-28T02:38:37;6.28;;;3.78;;
47289;SDS011;33197;52.524;13.444;2022-09-28T02:47:30;6.40;;;4.18;;
47289;SDS011;33197;52.524;13.444;2022-09-28T02:49:46;4.55;;;4.05;;
47289;SDS011;33197;52.524;13.444;2022-09-28T02:56:00;4.30;;;3.72;;
47289;SDS011;33197;52.524;13.444;2022-09-28T03:04:35;4.10;;;3.70;;
47289;SDS011;33197;52.524;13.444;2022-09-28T03:07:25;5.50;;;4.55;;
47289;SDS011;33197;52.524;13.444;2022-09-28T03:13:05;5.22;;;4.28;;
47289;SDS011;33197;52.524;13.444;2022-09-28T03:15:33;6.18;;;4.10;;
47289;SDS011;33197;52.524;13.444;2022-09-28T03:18:05;6.20;;;4.85;;
47289;SDS011;33197;52.524;13.444;2022-09-28T03:20:41;5.50;;;4.07;;
47289;SDS011;33197;52.524;13.444;2022-09-28T03:23:08;4.53;;;3.70;;
47289;SDS011;33197;52.524;13.444;2022-09-28T03:25:51;6.57;;;4.68;;
47289;SDS011;33197;52.524;13.444;2022-09-28T03:28:23;5.75;;;4.38;;
47289;SDS011;33197;52.524;13.444;2022-09-28T03:30:55;5.10;;;3.70;;
47289;SDS011;33197;52.524;13.444;2022-09-28T03:36:29;4.65;;;4.05;;
47289;SDS011;33197;52.524;13.444;2022-09-28T03:38:58;4.82;;;4.30;;
47289;SDS011;33197;52.524;13.444;2022-09-28T03:41:31;5.65;;;4.70;;
47289;SDS011;33197;52.524;13.444;2022-09-28T03:43:59;4.93;;;4.32;;
47289;SDS011;33197;52.524;13.444;2022-09-28T03:46:28;5.47;;;4.63;;
47289;SDS011;33197;52.524;13.444;2022-09-28T03:49:00;6.60;;;4.97;;
47289;SDS011;33197;52.524;13.444;2022-09-28T03:51:27;4.95;;;4.38;;
47289;SDS011;33197;52.524;13.444;2022-09-28T03:53:59;7.03;;;4.93;;
47289;SDS011;33197;52.524;13.444;2022-09-28T03:56:29;8.38;;;5.40;;
47289;SDS011;33197;52.524;13.444;2022-09-28T03:58:58;10.23;;;5.53;;
47289;SDS011;33197;52.524;13.444;2022-09-28T04:01:25;5.38;;;4.88;;
47289;SDS011;33197;52.524;13.444;2022-09-28T04:03:57;9.52;;;5.03;;
47289;SDS011;33197;52.524;13.444;2022-09-28T04:06:27;7.38;;;5.15;;
47289;SDS011;33197;52.524;13.444;2022-09-28T04:08:56;5.70;;;4.63;;
47289;SDS011;33197;52.524;13.444;2022-09-28T04:11:25;6.38;;;5.03;;
47289;SDS011;33197;52.524;13.444;2022-09-28T04:13:52;6.80;;;5.03;;
47289;SDS011;33197;52.524;13.444;2022-09-28T04:16:22;9.10;;;4.93;;
47289;SDS011;33197;52.524;13.444;2022-09-28T04:18:50;5.95;;;4.82;;
47289;SDS011;33197;52.524;13.444;2022-09-28T04:21:18;8.85;;;5.25;;
47289;SDS011;33197;52.524;13.444;2022-09-28T04:23:46;10.52;;;5.63;;
47289;SDS011;33197;52.524;13.444;2022-09-28T04:26:16;7.03;;;6.25;;
47289;SDS011;33197;52.524;13.444;2022-09-28T04:28:46;5.72;;;4.95;;
47289;SDS011;33197;52.524;13.444;2022-09-28T04:31:36;6.03;;;4.70;;
47289;SDS011;33197;52.524;13.444;2022-09-28T04:34:06;6.30;;;4.30;;
47289;SDS011;33197;52.524;13.444;2022-09-28T04:36:34;9.48;;;5.10;;
47289;SDS011;33197;52.524;13.444;2022-09-28T04:39:02;5.65;;;4.72;;
47289;SDS011;33197;52.524;13.444;2022-09-28T04:41:29;5.38;;;4.82;;
47289;SDS011;33197;52.524;13.444;2022-09-28T04:43:57;7.57;;;5.15;;
47289;SDS011;33197;52.524;13.444;2022-09-28T04:46:37;10.23;;;5.50;;
47289;SDS011;33197;52.524;13.444;2022-09-28T04:49:14;6.57;;;5.50;;
47289;SDS011;33197;52.524;13.444;2022-09-28T04:51:45;7.05;;;5.70;;
47289;SDS011;33197;52.524;13.444;2022-09-28T04:54:14;6.13;;;5.10;;
47289;SDS011;33197;52.524;13.444;2022-09-28T04:56:50;6.20;;;5.32;;
47289;SDS011;33197;52.524;13.444;2022-09-28T04:59:24;9.20;;;5.25;;
47289;SDS011;33197;52.524;13.444;2022-09-28T05:01:58;7.63;;;5.25;;
47289;SDS011;33197;52.524;13.444;2022-09-28T05:04:29;7.75;;;5.35;;
47289;SDS011;33197;52.524;13.444;2022-09-28T05:06:57;8.63;;;5.93;;
47289;SDS011;33197;52.524;13.444;2022-09-28T05:09:25;9.05;;;5.57;;
47289;SDS011;33197;52.524;13.444;2022-09-28T05:11:54;7.30;;;5.95;;
47289;SDS011;33197;52.524;13.444;2022-09-28T05:14:22;5.88;;;5.22;;
47289;SDS011;33197;52.524;13.444;2022-09-28T05:16:50;8.77;;;6.82;;
47289;SDS011;33197;52.524;13.444;2022-09-28T05:19:17;6.60;;;5.43;;
47289;SDS011;33197;52.524;13.444;2022-09-28T05:21:47;7.43;;;5.45;;
47289;SDS011;33197;52.524;13.444;2022-09-28T05:24:15;6.80;;;5.18;;
47289;SDS011;33197;52.524;13.444;2022-09-28T05:26:45;7.20;;;5.43;;
47289;SDS011;33197;52.524;13.444;2022-09-28T05:29:18;6.90;;;5.05;;
47289;SDS011;33197;52.524;13.444;2022-09-28T05:31:46;7.50;;;5.18;;
47289;SDS011;33197;52.524;13.444;2022-09-28T05:34:13;6.68;;;5.88;;
47289;SDS011;33197;52.524;13.444;2022-09-28T05:36:41;6.18;;;5.50;;
47289;SDS011;33197;52.524;13.444;2022-09-28T05:39:11;10.15;;;6.32;;
47289;SDS011;33197;52.524;13.444;2022-09-28T05:41:40;10.20;;;6.43;;
47289;SDS011;33197;52.524;13.444;2022-09-28T05:44:07;8.52;;;5.90;;
47289;SDS011;33197;52.524;13.444;2022-09-28T05:46:34;6.53;;;5.15;;
47289;SDS011;33197;52.524;13.444;2022-09-28T05:49:02;10.18;;;5.93;;
47289;SDS011;33197;52.524;13.444;2022-09-28T05:51:31;8.60;;;6.20;;
47289;SDS011;33197;52.524;13.444;2022-09-28T05:53:58;8.98;;;6.38;;
47289;SDS011;33197;52.524;13.444;2022-09-28T05:56:31;7.90;;;6.43;;
47289;SDS011;33197;52.524;13.444;2022-09-28T05:58:59;9.63;;;6.13;;
47289;SDS011;33197;52.524;13.444;2022-09-28T06:01:28;7.97;;;5.90;;
47289;SDS011;33197;52.524;13.444;2022-09-28T06:03:58;7.53;;;5.95;;
47289;SDS011;33197;52.524;13.444;2022-09-28T06:06:25;8.90;;;5.30;;
47289;SDS011;33197;52.524;13.444;2022-09-28T06:08:54;10.82;;;6.30;;
47289;SDS011;33197;52.524;13.444;2022-09-28T06:11:22;7.63;;;5.25;;
47289;SDS011;33197;52.524;13.444;2022-09-28T06:13:53;10.73;;;6.30;;
47289;SDS011;33197;52.524;13.444;2022-09-28T06:16:24;8.80;;;5.85;;
47289;SDS011;33197;52.524;13.444;2022-09-28T06:18:51;8.43;;;5.40;;
47289;SDS011;33197;52.524;13.444;2022-09-28T06:21:20;10.30;;;6.05;;
47289;SDS011;33197;52.524;13.444;2022-09-28T06:23:47;11.65;;;6.18;;
47289;SDS011;33197;52.524;13.444;2022-09-28T06:26:15;7.90;;;5.13;;
47289;SDS011;33197;52.524;13.444;2022-09-28T06:28:45;6.65;;;5.60;;
47289;SDS011;33197;52.524;13.444;2022-09-28T06:31:13;6.82;;;5.43;;
47289;SDS011;33197;52.524;13.444;2022-09-28T06:33:41;9.07;;;6.55;;
47289;SDS011;33197;52.524;13.444;2022-09-28T06:36:11;7.95;;;6.43;;
47289;SDS011;33197;52.524;13.444;2022-09-28T06:38:39;10.30;;;6.32;;
47289;SDS011;33197;52.524;13.444;2022-09-28T06:41:07;8.88;;;6.47;;
47289;SDS011;33197;52.524;13.444;2022-09-28T06:43:34;10.40;;;7.03;;
47289;SDS011;33197;52.524;13.444;2022-09-28T06:46:14;9.20;;;7.05;;
47289;SDS011;33197;52.524;13.444;2022-09-28T06:48:42;8.60;;;6.32;;
47289;SDS011;33197;52.524;13.444;2022-09-28T06:51:21;8.57;;;6.65;;
47289;SDS011;33197;52.524;13.444;2022-09-28T06:53:49;10.98;;;6.30;;
47289;SDS011;33197;52.524;13.444;2022-09-28T06:56:20;10.55;;;7.45;;
47289;SDS011;33197;52.524;13.444;2022-09-28T06:58:47;7.32;;;6.47;;
47289;SDS011;33197;52.524;13.444;2022-09-28T07:01:15;12.18;;;6.75;;
47289;SDS011;33197;52.524;13.444;2022-09-28T07:03:42;10.73;;;7.45;;
47289;SDS011;33197;52.524;13.444;2022-09-28T07:06:10;7.47;;;6.28;;
47289;SDS011;33197;52.524;13.444;2022-09-28T07:08:38;14.25;;;6.90;;
47289;SDS011;33197;52.524;13.444;2022-09-28T07:11:06;9.52;;;6.90;;
47289;SDS011;33197;52.524;13.444;2022-09-28T07:13:34;10.10;;;7.40;;
47289;SDS011;33197;52.524;13.444;2022-09-28T07:16:17;10.73;;;7.38;;
47289;SDS011;33197;52.524;13.444;2022-09-28T07:18:51;11.10;;;8.38;;
47289;SDS011;33197;52.524;13.444;2022-09-28T07:21:19;12.57;;;7.05;;
47289;SDS011;33197;52.524;13.444;2022-09-28T07:24:04;11.88;;;7.95;;
47289;SDS011;33197;52.524;13.444;2022-09-28T07:26:31;12.07;;;7.97;;
47289;SDS011;33197;52.524;13.444;2022-09-28T07:29:00;9.73;;;7.50;;
47289;SDS011;33197;52.524;13.444;2022-09-28T07:31:27;9.93;;;7.25;;
47289;SDS011;33197;52.524;13.444;2022-09-28T07:33:55;9.07;;;6.88;;
47289;SDS011;33197;52.524;13.444;2022-09-28T07:36:24;10.02;;;6.97;;
47289;SDS011;33197;52.524;13.444;2022-09-28T07:38:51;10.57;;;8.07;;
47289;SDS011;33197;52.524;13.444;2022-09-28T07:41:19;10.48;;;8.30;;
47289;SDS011;33197;52.524;13.444;2022-09-28T07:43:59;9.45;;;7.93;;
47289;SDS011;33197;52.524;13.444;2022-09-28T07:46:32;14.20;;;8.45;;
47289;SDS011;33197;52.524;13.444;2022-09-28T07:49:00;10.02;;;8.07;;
47289;SDS011;33197;52.524;13.444;2022-09-28T07:51:37;11.95;;;8.57;;
47289;SDS011;33197;52.524;13.444;2022-09-28T07:54:04;12.85;;;8.68;;
47289;SDS011;33197;52.524;13.444;2022-09-28T07:56:32;9.32;;;7.95;;
47289;SDS011;33197;52.524;13.444;2022-09-28T07:59:02;11.60;;;8.40;;
47289;SDS011;33197;52.524;13.444;2022-09-28T08:01:30;9.52;;;8.15;;
47289;SDS011;33197;52.524;13.444;2022-09-28T08:03:58;14.90;;;9.07;;
47289;SDS011;33197;52.524;13.444;2022-09-28T08:06:26;11.18;;;8.80;;
47289;SDS011;33197;52.524;13.444;2022-09-28T08:08:56;12.75;;;7.68;;
47289;SDS011;33197;52.524;13.444;2022-09-28T08:11:25;14.88;;;9.07;;
47289;SDS011;33197;52.524;13.444;2022-09-28T08:13:53;9.82;;;7.75;;
47289;SDS011;33197;52.524;13.444;2022-09-28T08:16:21;12.05;;;7.32;;
47289;SDS011;33197;52.524;13.444;2022-09-28T08:18:49;16.25;;;8.35;;
47289;SDS011;33197;52.524;13.444;2022-09-28T08:21:17;11.40;;;8.10;;
47289;SDS011;33197;52.524;13.444;2022-09-28T08:24:05;11.23;;;7.65;;
47289;SDS011;33197;52.524;13.444;2022-09-28T08:26:37;11.90;;;7.65;;
47289;SDS011;33197;52.524;13.444;2022-09-28T08:29:19;9.13;;;7.47;;
47289;SDS011;33197;52.524;13.444;2022-09-28T08:31:47;8.95;;;7.15;;
47289;SDS011;33197;52.524;13.444;2022-09-28T08:34:15;11.05;;;9.23;;
47289;SDS011;33197;52.524;13.444;2022-09-28T08:36:52;10.48;;;7.30;;
47289;SDS011;33197;52.524;13.444;2022-09-28T08:39:22;7.43;;;6.38;;
47289;SDS011;33197;52.524;13.444;2022-09-28T08:44:49;6.90;;;6.15;;
47289;SDS011;33197;52.524;13.444;2022-09-28T08:47:36;7.75;;;6.03;;
47289;SDS011;33197;52.524;13.444;2022-09-28T08:50:32;8.88;;;5.78;;
47289;SDS011;33197;52.524;13.444;2022-09-28T08:53:14;6.88;;;5.63;;
47289;SDS011;33197;52.524;13.444;2022-09-28T08:59:22;7.88;;;6.70;;
47289;SDS011;33197;52.524;13.444;2022-09-28T09:01:59;10.98;;;6.10;;
47289;SDS011;33197;52.524;13.444;2022-09-28T09:04:31;7.00;;;5.93;;
47289;SDS011;33197;52.524;13.444;2022-09-28T09:10:37;6.72;;;5.55;;
47289;SDS011;33197;52.524;13.444;2022-09-28T09:13:42;7.65;;;6.22;;
47289;SDS011;33197;52.524;13.444;2022-09-28T09:24:27;7.65;;;5.22;;
47289;SDS011;33197;52.524;13.444;2022-09-28T09:27:25;5.32;;;4.45;;
47289;SDS011;33197;52.524;13.444;2022-09-28T09:38:40;6.53;;;4.43;;
47289;SDS011;33197;52.524;13.444;2022-09-28T09:44:35;7.00;;;4.57;;
47289;SDS011;33197;52.524;13.444;2022-09-28T09:47:10;5.30;;;3.72;;
47289;SDS011;33197;52.524;13.444;2022-09-28T09:53:48;5.13;;;3.80;;
47289;SDS011;33197;52.524;13.444;2022-09-28T09:57:03;4.00;;;3.60;;
47289;SDS011;33197;52.524;13.444;2022-09-28T09:59:48;4.22;;;3.20;;
47289;SDS011;33197;52.524;13.444;2022-09-28T10:11:30;4.35;;;2.70;;
47289;SDS011;33197;52.524;13.444;2022-09-28T10:13:39;5.35;;;2.60;;
47289;SDS011;33197;52.524;13.444;2022-09-28T10:16:24;8.48;;;2.70;;
47289;SDS011;33197;52.524;13.444;2022-09-28T10:19:32;3.58;;;2.13;;
47289;SDS011;33197;52.524;13.444;2022-09-28T10:22:24;4.72;;;2.17;;
47289;SDS011;33197;52.524;13.444;2022-09-28T10:26:02;7.88;;;2.25;;
47289;SDS011;33197;52.524;13.444;2022-09-28T10:28:53;6.53;;;2.25;;
47289;SDS011;33197;52.524;13.444;2022-09-28T10:31:31;5.15;;;1.20;;
47289;SDS011;33197;52.524;13.444;2022-09-28T10:34:10;5.72;;;1.90;;
47289;SDS011;33197;52.524;13.444;2022-09-28T10:42:25;3.17;;;1.17;;
47289;SDS011;33197;52.524;13.444;2022-09-28T10:45:19;7.45;;;1.60;;
47289;SDS011;33197;52.524;13.444;2022-09-28T10:47:50;8.27;;;1.30;;
47289;SDS011;33197;52.524;13.444;2022-09-28T10:50:24;5.40;;;1.42;;
47289;SDS011;33197;52.524;13.444;2022-09-28T10:53:18;7.63;;;1.52;;
47289;SDS011;33197;52.524;13.444;2022-09-28T10:55:55;6.10;;;1.92;;
47289;SDS011;33197;52.524;13.444;2022-09-28T10:58:32;6.68;;;1.42;;
47289;SDS011;33197;52.524;13.444;2022-09-28T11:01:14;2.38;;;1.08;;
47289;SDS011;33197;52.524;13.444;2022-09-28T11:03:58;2.47;;;1.27;;
47289;SDS011;33197;52.524;13.444;2022-09-28T11:06:31;4.25;;;1.27;;
47289;SDS011;33197;52.524;13.444;2022-09-28T11:09:05;6.15;;;1.20;;
47289;SDS011;33197;52.524;13.444;2022-09-28T11:11:45;6.40;;;1.77;;
47289;SDS011;33197;52.524;13.444;2022-09-28T11:20:19;3.10;;;1.30;;
47289;SDS011;33197;52.524;13.444;2022-09-28T11:22:56;7.88;;;2.28;;
47289;SDS011;33197;52.524;13.444;2022-09-28T11:25:28;7.78;;;2.28;;
47289;SDS011;33197;52.524;13.444;2022-09-28T11:27:59;3.78;;;1.40;;
47289;SDS011;33197;52.524;13.444;2022-09-28T11:30:32;4.25;;;2.13;;
47289;SDS011;33197;52.524;13.444;2022-09-28T11:33:10;3.88;;;2.03;;
47289;SDS011;33197;52.524;13.444;2022-09-28T11:38:52;4.82;;;1.45;;
47289;SDS011;33197;52.524;13.444;2022-09-28T11:41:54;2.67;;;1.55;;
47289;SDS011;33197;52.524;13.444;2022-09-28T11:44:45;4.78;;;1.80;;
47289;SDS011;33197;52.524;13.444;2022-09-28T11:50:26;3.72;;;1.58;;
47289;SDS011;33197;52.524;13.444;2022-09-28T11:58:56;3.20;;;1.60;;
47289;SDS011;33197;52.524;13.444;2022-09-28T12:02:02;4.70;;;1.10;;
47289;SDS011;33197;52.524;13.444;2022-09-28T12:08:20;4.88;;;1.38;;
47289;SDS011;33197;52.524;13.444;2022-09-28T12:13:40;1.58;;;1.13;;
47289;SDS011;33197;52.524;13.444;2022-09-28T12:16:15;5.57;;;1.08;;
47289;SDS011;33197;52.524;13.444;2022-09-28T12:19:11;11.38;;;2.17;;
47289;SDS011;33197;52.524;13.444;2022-09-28T12:21:51;4.85;;;1.10;;
47289;SDS011;33197;52.524;13.444;2022-09-28T12:24:44;3.70;;;1.58;;
47289;SDS011;33197;52.524;13.444;2022-09-28T12:27:22;6.85;;;1.50;;
47289;SDS011;33197;52.524;13.444;2022-09-28T12:30:17;5.38;;;1.63;;
47289;SDS011;33197;52.524;13.444;2022-09-28T12:32:53;9.85;;;1.15;;
47289;SDS011;33197;52.524;13.444;2022-09-28T12:39:13;5.90;;;1.13;;
47289;SDS011;33197;52.524;13.444;2022-09-28T12:52:01;2.05;;;1.00;;
47289;SDS011;33197;52.524;13.444;2022-09-28T13:00:32;1.83;;;0.90;;
47289;SDS011;33197;52.524;13.444;2022-09-28T13:03:14;3.53;;;0.80;;
47289;SDS011;33197;52.524;13.444;2022-09-28T13:15:25;1.17;;;0.60;;
47289;SDS011;33197;52.524;13.444;2022-09-28T13:18:07;2.33;;;0.80;;
47289;SDS011;33197;52.524;13.444;2022-09-28T13:20:59;2.50;;;0.75;;
47289;SDS011;33197;52.524;13.444;2022-09-28T13:23:41;1.52;;;0.55;;
47289;SDS011;33197;52.524;13.444;2022-09-28T13:26:25;1.90;;;1.00;;
47289;SDS011;33197;52.524;13.444;2022-09-28T13:29:02;1.70;;;0.70;;
47289;SDS011;33197;52.524;13.444;2022-09-28T13:31:38;1.42;;;0.70;;
47289;SDS011;33197;52.524;13.444;2022-09-28T13:34:39;1.30;;;0.80;;
47289;SDS011;33197;52.524;13.444;2022-09-28T13:51:25;9.73;;;1.48;;
47289;SDS011;33197;52.524;13.444;2022-09-28T13:54:05;0.75;;;0.50;;
47289;SDS011;33197;52.524;13.444;2022-09-28T13:57:03;2.10;;;0.88;;
47289;SDS011;33197;52.524;13.444;2022-09-28T13:59:55;1.02;;;0.60;;
47289;SDS011;33197;52.524;13.444;2022-09-28T14:05:52;1.48;;;0.70;;
47289;SDS011;33197;52.524;13.444;2022-09-28T14:12:00;1.20;;;0.60;;
47289;SDS011;33197;52.524;13.444;2022-09-28T14:14:44;1.08;;;0.70;;
47289;SDS011;33197;52.524;13.444;2022-09-28T14:20:13;2.05;;;0.88;;
47289;SDS011;33197;52.524;13.444;2022-09-28T14:22:55;1.27;;;0.90;;
47289;SDS011;33197;52.524;13.444;2022-09-28T14:25:30;2.65;;;0.82;;
47289;SDS011;33197;52.524;13.444;2022-09-28T14:28:35;1.55;;;0.60;;
47289;SDS011;33197;52.524;13.444;2022-09-28T14:31:18;1.75;;;0.52;;
47289;SDS011;33197;52.524;13.444;2022-09-28T14:33:55;1.38;;;0.82;;
47289;SDS011;33197;52.524;13.444;2022-09-28T14:36:37;1.27;;;0.80;;
47289;SDS011;33197;52.524;13.444;2022-09-28T14:39:30;2.13;;;0.70;;
47289;SDS011;33197;52.524;13.444;2022-09-28T14:42:23;2.78;;;1.00;;
47289;SDS011;33197;52.524;13.444;2022-09-28T14:47:40;3.15;;;1.10;;
47289;SDS011;33197;52.524;13.444;2022-09-28T14:50:22;2.55;;;0.90;;
47289;SDS011;33197;52.524;13.444;2022-09-28T14:53:05;1.35;;;0.93;;
47289;SDS011;33197;52.524;13.444;2022-09-28T14:55:57;2.25;;;1.25;;
47289;SDS011;33197;52.524;13.444;2022-09-28T14:58:26;1.48;;;0.90;;
47289;SDS011;33197;52.524;13.444;2022-09-28T15:01:00;2.08;;;1.33;;
47289;SDS011;33197;52.524;13.444;2022-09-28T15:03:29;2.45;;;1.23;;
47289;SDS011;33197;52.524;13.444;2022-09-28T15:05:58;2.90;;;1.48;;
47289;SDS011;33197;52.524;13.444;2022-09-28T15:08:35;2.78;;;1.05;;
47289;SDS011;33197;52.524;13.444;2022-09-28T15:11:03;4.07;;;1.70;;
47289;SDS011;33197;52.524;13.444;2022-09-28T15:13:31;4.68;;;1.23;;
47289;SDS011;33197;52.524;13.444;2022-09-28T15:16:00;4.18;;;1.10;;
47289;SDS011;33197;52.524;13.444;2022-09-28T15:18:37;1.83;;;1.05;;
47289;SDS011;33197;52.524;13.444;2022-09-28T15:21:14;1.50;;;1.00;;
47289;SDS011;33197;52.524;13.444;2022-09-28T15:23:42;1.63;;;1.08;;
47289;SDS011;33197;52.524;13.444;2022-09-28T15:26:30;3.58;;;1.25;;
47289;SDS011;33197;52.524;13.444;2022-09-28T15:29:00;2.90;;;1.35;;
47289;SDS011;33197;52.524;13.444;2022-09-28T15:31:32;3.45;;;1.17;;
47289;SDS011;33197;52.524;13.444;2022-09-28T15:34:02;3.20;;;1.42;;
47289;SDS011;33197;52.524;13.444;2022-09-28T15:36:47;5.40;;;1.40;;
47289;SDS011;33197;52.524;13.444;2022-09-28T15:39:31;3.05;;;1.20;;
47289;SDS011;33197;52.524;13.444;2022-09-28T15:42:02;1.60;;;1.20;;
47289;SDS011;33197;52.524;13.444;2022-09-28T15:50:55;3.60;;;1.83;;
47289;SDS011;33197;52.524;13.444;2022-09-28T15:53:25;2.03;;;1.48;;
47289;SDS011;33197;52.524;13.444;2022-09-28T15:55:56;4.82;;;1.73;;
47289;SDS011;33197;52.524;13.444;2022-09-28T15:58:26;3.85;;;1.50;;
47289;SDS011;33197;52.524;13.444;2022-09-28T16:03:49;4.03;;;1.60;;
47289;SDS011;33197;52.524;13.444;2022-09-28T16:06:18;3.40;;;1.70;;
47289;SDS011;33197;52.524;13.444;2022-09-28T16:08:45;1.75;;;1.25;;
47289;SDS011;33197;52.524;13.444;2022-09-28T16:11:22;2.03;;;1.38;;
47289;SDS011;33197;52.524;13.444;2022-09-28T16:14:00;2.17;;;1.30;;
47289;SDS011;33197;52.524;13.444;2022-09-28T16:16:45;2.97;;;1.60;;
47289;SDS011;33197;52.524;13.444;2022-09-28T16:19:29;2.33;;;1.42;;
47289;SDS011;33197;52.524;13.444;2022-09-28T16:22:06;2.28;;;1.40;;
47289;SDS011;33197;52.524;13.444;2022-09-28T16:24:36;2.83;;;1.40;;
47289;SDS011;33197;52.524;13.444;2022-09-28T16:30:12;1.75;;;1.50;;
47289;SDS011;33197;52.524;13.444;2022-09-28T16:32:56;3.65;;;1.60;;
47289;SDS011;33197;52.524;13.444;2022-09-28T16:36:03;2.92;;;1.48;;
47289;SDS011;33197;52.524;13.444;2022-09-28T16:38:47;2.75;;;1.83;;
47289;SDS011;33197;52.524;13.444;2022-09-28T16:41:47;3.03;;;1.95;;
47289;SDS011;33197;52.524;13.444;2022-09-28T16:45:25;2.63;;;1.85;;
47289;SDS011;33197;52.524;13.444;2022-09-28T16:48:08;4.05;;;1.60;;
47289;SDS011;33197;52.524;13.444;2022-09-28T16:50:54;2.47;;;1.75;;
47289;SDS011;33197;52.524;13.444;2022-09-28T16:53:31;3.22;;;1.95;;
47289;SDS011;33197;52.524;13.444;2022-09-28T16:56:49;4.82;;;2.25;;
47289;SDS011;33197;52.524;13.444;2022-09-28T16:59:17;4.05;;;1.90;;
47289;SDS011;33197;52.524;13.444;2022-09-28T17:01:44;2.30;;;2.10;;
47289;SDS011;33197;52.524;13.444;2022-09-28T17:04:11;6.20;;;2.30;;
47289;SDS011;33197;52.524;13.444;2022-09-28T17:06:40;3.15;;;2.10;;
47289;SDS011;33197;52.524;13.444;2022-09-28T17:11:58;4.72;;;2.70;;
47289;SDS011;33197;52.524;13.444;2022-09-28T17:14:30;5.60;;;2.47;;
47289;SDS011;33197;52.524;13.444;2022-09-28T17:16:58;5.07;;;2.78;;
47289;SDS011;33197;52.524;13.444;2022-09-28T17:19:37;3.50;;;2.90;;
47289;SDS011;33197;52.524;13.444;2022-09-28T17:22:07;3.58;;;3.03;;
47289;SDS011;33197;52.524;13.444;2022-09-28T17:24:43;2.80;;;2.55;;
47289;SDS011;33197;52.524;13.444;2022-09-28T17:27:14;5.32;;;2.85;;
47289;SDS011;33197;52.524;13.444;2022-09-28T17:29:43;3.15;;;2.75;;
47289;SDS011;33197;52.524;13.444;2022-09-28T17:32:19;3.95;;;2.85;;
47289;SDS011;33197;52.524;13.444;2022-09-28T17:34:50;2.90;;;2.42;;
47289;SDS011;33197;52.524;13.444;2022-09-28T17:37:43;4.20;;;3.10;;
47289;SDS011;33197;52.524;13.444;2022-09-28T17:40:23;5.20;;;3.35;;
47289;SDS011;33197;52.524;13.444;2022-09-28T17:42:59;5.22;;;2.88;;
47289;SDS011;33197;52.524;13.444;2022-09-28T17:45:28;4.72;;;3.38;;
47289;SDS011;33197;52.524;13.444;2022-09-28T17:48:12;7.30;;;3.80;;
47289;SDS011;33197;52.524;13.444;2022-09-28T17:50:47;3.83;;;2.88;;
47289;SDS011;33197;52.524;13.444;2022-09-28T17:53:17;5.53;;;3.30;;
47289;SDS011;33197;52.524;13.444;2022-09-28T17:55:48;5.35;;;3.33;;
47289;SDS011;33197;52.524;13.444;2022-09-28T17:58:26;5.80;;;3.45;;
47289;SDS011;33197;52.524;13.444;2022-09-28T18:01:24;5.70;;;2.80;;
47289;SDS011;33197;52.524;13.444;2022-09-28T18:04:08;3.65;;;2.78;;
47289;SDS011;33197;52.524;13.444;2022-09-28T18:07:05;4.25;;;2.90;;
47289;SDS011;33197;52.524;13.444;2022-09-28T18:09:46;5.32;;;2.65;;
47289;SDS011;33197;52.524;13.444;2022-09-28T18:12:25;7.57;;;3.33;;
47289;SDS011;33197;52.524;13.444;2022-09-28T18:14:58;9.15;;;5.57;;
47289;SDS011;33197;52.524;13.444;2022-09-28T18:17:50;4.63;;;2.90;;
47289;SDS011;33197;52.524;13.444;2022-09-28T18:20:41;8.10;;;2.58;;
47289;SDS011;33197;52.524;13.444;2022-09-28T18:23:09;8.45;;;2.72;;
47289;SDS011;33197;52.524;13.444;2022-09-28T18:25:57;6.45;;;2.17;;
47289;SDS011;33197;52.524;13.444;2022-09-28T18:28:33;5.30;;;2.28;;
47289;SDS011;33197;52.524;13.444;2022-09-28T18:31:07;8.07;;;2.50;;
47289;SDS011;33197;52.524;13.444;2022-09-28T18:33:45;9.18;;;2.55;;
47289;SDS011;33197;52.524;13.444;2022-09-28T18:36:35;7.45;;;1.70;;
47289;SDS011;33197;52.524;13.444;2022-09-28T18:39:22;7.90;;;2.30;;
47289;SDS011;33197;52.524;13.444;2022-09-28T18:42:13;8.25;;;2.70;;
47289;SDS011;33197;52.524;13.444;2022-09-28T18:44:51;36.17;;;10.90;;
47289;SDS011;33197;52.524;13.444;2022-09-28T18:47:24;53.83;;;13.48;;